Time;durP1;ratioP1;P1;durP2;ratioP2;P2;SDS_P1;SDS_P2;PMS_P1;PMS_P2;Temp;Humidity;BMP_temperature;BMP_pressure;BME280_temperature;BME280_humidity;BME280_pressure;Samples;Min_cycle;Max_cycle;Signal;HPM_P1;HPM_P2
2023/06/01 00:00:24;;;;;;;13.53;9.57;;;;;;;11.06;100.00;102137.00;5040261;28;20541;-40
2023/06/01 00:02:54;;;;;;;12.70;9.10;;;;;;;11.10;100.00;102130.34;5040115;28;20480;-40
2023/06/01 00:05:22;;;;;;;18.43;9.40;;;;;;;11.10;100.00;102133.03;5040027;28;20457;-42
2023/06/01 00:07:50;;;;;;;15.77;8.53;;;;;;;11.05;100.00;102123.84;5039251;28;20436;-42
2023/06/01 00:10:18;;;;;;;19.30;9.90;;;;;;;11.06;100.00;102129.00;5039104;28;20518;-41
2023/06/01 00:12:46;;;;;;;19.90;10.27;;;;;;;11.06;100.00;102139.69;5039992;28;20454;-43
2023/06/01 00:15:14;;;;;;;21.53;10.23;;;;;;;11.00;100.00;102124.31;5039741;28;20530;-41
2023/06/01 00:17:42;;;;;;;9.57;8.57;;;;;;;10.97;100.00;102127.31;5040580;28;20436;-40
2023/06/01 00:20:11;;;;;;;12.90;9.30;;;;;;;11.06;100.00;102129.00;5039199;28;20531;-41
2023/06/01 00:22:39;;;;;;;18.73;9.60;;;;;;;11.10;100.00;102130.34;5039412;28;20483;-40
2023/06/01 00:25:08;;;;;;;13.43;10.00;;;;;;;11.06;100.00;102128.16;5039240;28;20468;-41
2023/06/01 00:27:36;;;;;;;19.93;9.73;;;;;;;11.00;100.00;102126.16;5040212;28;20421;-41
2023/06/01 00:30:05;;;;;;;18.80;11.73;;;;;;;11.08;100.00;102131.50;5039688;28;20506;-43
2023/06/01 00:32:32;;;;;;;13.30;9.10;;;;;;;11.05;100.00;102115.84;5039785;28;20490;-40
2023/06/01 00:35:00;;;;;;;18.63;10.07;;;;;;;11.01;100.00;102122.50;5039599;28;20472;-42
2023/06/01 00:37:29;;;;;;;16.27;9.23;;;;;;;11.06;100.00;102117.50;5039381;28;20436;-40
2023/06/01 00:39:57;;;;;;;16.17;9.20;;;;;;;11.05;100.00;102111.31;5039239;28;20815;-40
2023/06/01 00:42:25;;;;;;;20.70;10.70;;;;;;;11.03;100.00;102113.31;5039932;28;20569;-41
2023/06/01 00:44:53;;;;;;;16.77;9.80;;;;;;;11.07;100.00;102103.16;5038860;28;20444;-43
2023/06/01 00:47:21;;;;;;;21.13;11.60;;;;;;;11.09;100.00;102117.16;5039467;28;20779;-40
2023/06/01 00:49:49;;;;;;;13.77;9.70;;;;;;;11.09;100.00;102109.16;5038993;28;20550;-40
2023/06/01 00:52:18;;;;;;;13.47;8.40;;;;;;;11.08;100.00;102113.66;5042260;28;20431;-41
2023/06/01 00:54:47;;;;;;;27.30;9.87;;;;;;;11.07;100.00;102119.16;5043508;28;20491;-40
2023/06/01 00:57:15;;;;;;;25.07;11.03;;;;;;;11.10;100.00;102122.34;5043732;28;20482;-40
2023/06/01 00:59:42;;;;;;;21.73;10.07;;;;;;;11.10;100.00;102121.50;5043651;28;20494;-41
2023/06/01 01:02:15;;;;;;;17.47;9.87;;;;;;;11.02;100.00;102108.97;5043547;28;20428;-41
2023/06/01 01:04:43;;;;;;;20.10;10.27;;;;;;;11.07;100.00;102114.66;5043264;28;20456;-40
2023/06/01 01:07:20;;;;;;;16.53;11.53;;;;;;;11.09;100.00;102109.16;5043149;28;20424;-40
2023/06/01 01:10:05;;;;;;;20.50;9.37;;;;;;;11.02;100.00;102105.50;5043260;28;20987;-42
2023/06/01 01:12:41;;;;;;;12.70;9.90;;;;;;;11.08;100.00;102112.81;5043623;28;20479;-42
2023/06/01 01:15:18;;;;;;;17.63;8.90;;;;;;;11.09;100.00;102106.47;5043627;28;20468;-41
2023/06/01 01:17:51;;;;;;;15.90;9.63;;;;;;;11.20;100.00;102103.47;5043235;28;20424;-40
2023/06/01 01:20:24;;;;;;;14.53;10.00;;;;;;;11.14;100.00;102098.78;5042400;28;20455;-43
2023/06/01 01:23:06;;;;;;;19.30;10.67;;;;;;;11.11;100.00;102099.97;5043422;28;20824;-43
2023/06/01 01:26:09;;;;;;;20.27;9.90;;;;;;;11.13;100.00;102107.81;5042629;28;20883;-43
2023/06/01 01:28:43;;;;;;;17.87;10.00;;;;;;;11.18;100.00;102104.63;5036678;28;20486;-40
2023/06/01 01:31:13;;;;;;;13.10;9.03;;;;;;;11.14;100.00;102098.78;5041813;28;20486;-40
2023/06/01 01:33:42;;;;;;;16.63;9.60;;;;;;;11.17;100.00;102092.31;5043037;28;20408;-41
2023/06/01 01:36:11;;;;;;;20.07;9.40;;;;;;;11.16;100.00;102087.97;5042926;28;20475;-40
2023/06/01 01:38:39;;;;;;;15.60;9.77;;;;;;;11.15;100.00;102092.47;5042419;28;20837;-41
2023/06/01 01:41:07;;;;;;;17.70;9.57;;;;;;;11.09;100.00;102079.78;5041756;28;20460;-40
2023/06/01 01:43:36;;;;;;;15.40;9.07;;;;;;;11.10;100.00;102094.81;5042655;28;20856;-40
2023/06/01 01:46:14;;;;;;;14.37;9.23;;;;;;;11.03;100.00;102091.97;5043073;28;20452;-40
2023/06/01 01:48:49;;;;;;;14.10;9.60;;;;;;;11.06;100.00;102085.44;5042649;28;20435;-41
2023/06/01 01:51:21;;;;;;;12.37;9.20;;;;;;;11.07;100.00;102077.28;5042237;28;20485;-41
2023/06/01 01:53:52;;;;;;;19.47;10.63;;;;;;;11.11;100.00;102080.44;5042681;28;20871;-42
2023/06/01 01:56:20;;;;;;;17.87;9.23;;;;;;;11.15;100.00;102079.09;5041952;28;20468;-40
2023/06/01 01:58:49;;;;;;;13.43;9.20;;;;;;;11.18;100.00;102075.25;5042487;28;20424;-40
2023/06/01 02:01:20;;;;;;;13.47;9.27;;;;;;;11.16;100.00;102067.44;5041731;28;21210;-40
2023/06/01 02:03:48;;;;;;;15.50;10.17;;;;;;;11.16;100.00;102070.09;5042293;28;20483;-42
2023/06/01 02:06:15;;;;;;;15.67;9.60;;;;;;;11.13;100.00;102073.13;5041953;28;20456;-40
2023/06/01 02:08:43;;;;;;;12.33;9.23;;;;;;;11.25;100.00;102063.75;5042582;28;20447;-40
2023/06/01 02:11:11;;;;;;;17.10;9.93;;;;;;;11.23;100.00;102056.94;5041622;28;20467;-40
2023/06/01 02:13:39;;;;;;;12.93;9.43;;;;;;;11.22;100.00;102063.25;5042972;28;20428;-40
2023/06/01 02:16:07;;;;;;;13.80;10.07;;;;;;;11.20;100.00;102060.75;5042015;28;20503;-41
2023/06/01 02:18:38;;;;;;;14.73;9.73;;;;;;;11.19;100.00;102059.09;5041930;28;20974;-40
2023/06/01 02:21:08;;;;;;;15.47;9.30;;;;;;;11.06;100.00;102064.94;5041705;28;20468;-40
2023/06/01 02:23:39;;;;;;;14.03;8.87;;;;;;;11.12;100.00;102052.75;5041987;28;20490;-40
2023/06/01 02:26:08;;;;;;;14.57;9.23;;;;;;;11.09;100.00;102058.41;5042311;28;20468;-40
2023/06/01 02:28:37;;;;;;;13.00;8.77;;;;;;;11.13;100.00;102059.78;5037551;28;20436;-40
2023/06/01 02:31:05;;;;;;;20.33;9.97;;;;;;;11.13;100.00;102059.78;5041140;28;20522;-40
2023/06/01 02:33:33;;;;;;;13.30;9.47;;;;;;;11.04;100.00;102052.75;5042291;28;20432;-41
2023/06/01 02:36:02;;;;;;;10.60;9.50;;;;;;;11.04;100.00;102044.75;5042232;28;20476;-40
2023/06/01 02:38:30;;;;;;;18.80;9.27;;;;;;;11.05;100.00;102044.56;5042244;28;20482;-40
2023/06/01 02:40:58;;;;;;;17.57;9.83;;;;;;;11.09;100.00;102042.41;5040957;28;20487;-40
2023/06/01 02:43:26;;;;;;;14.93;9.90;;;;;;;11.15;100.00;102040.88;5041827;28;20488;-41
2023/06/01 02:45:53;;;;;;;24.53;10.03;;;;;;;11.22;100.00;102040.06;5041631;28;20452;-41
2023/06/01 02:48:21;;;;;;;14.80;8.57;;;;;;;11.15;100.00;102033.72;5041609;28;20432;-40
2023/06/01 02:50:49;;;;;;;14.53;8.77;;;;;;;11.19;100.00;102032.41;5036295;28;20495;-42
2023/06/01 02:53:18;;;;;;;16.97;9.77;;;;;;;11.13;100.00;102030.41;5041049;28;20436;-41
2023/06/01 02:55:45;;;;;;;11.03;9.93;;;;;;;11.06;100.00;102021.38;5040757;28;20547;-40
2023/06/01 02:58:16;;;;;;;29.73;10.90;;;;;;;11.03;100.00;102019.88;5041110;28;20436;-41
2023/06/01 03:00:44;;;;;;;15.57;9.10;;;;;;;11.03;100.00;102011.03;5040218;28;20841;-43
2023/06/01 03:03:12;;;;;;;13.33;9.20;;;;;;;11.09;100.00;102013.03;5041212;28;20439;-42
2023/06/01 03:05:42;;;;;;;15.80;9.47;;;;;;;11.08;100.00;102003.34;5040835;28;20482;-40
2023/06/01 03:08:10;;;;;;;19.97;10.67;;;;;;;11.10;100.00;101999.53;5040622;28;20432;-41
2023/06/01 03:10:39;;;;;;;18.93;9.40;;;;;;;11.08;100.00;101996.19;5040430;28;20491;-40
2023/06/01 03:13:07;;;;;;;23.33;11.03;;;;;;;11.12;100.00;101999.34;5041431;28;20934;-41
2023/06/01 03:15:37;;;;;;;12.40;9.23;;;;;;;11.10;100.00;101996.03;5039969;28;20541;-40
2023/06/01 03:18:05;;;;;;;13.90;10.30;;;;;;;11.22;100.00;101999.19;5041009;28;20428;-40
2023/06/01 03:20:33;;;;;;;14.77;10.70;;;;;;;11.15;100.00;102007.03;5040972;28;20539;-41
2023/06/01 03:23:01;;;;;;;17.27;9.03;;;;;;;11.10;100.00;101994.19;5040537;28;20424;-40
2023/06/01 03:25:29;;;;;;;12.23;9.40;;;;;;;11.08;100.00;102003.34;5040948;28;20467;-41
2023/06/01 03:27:58;;;;;;;22.70;11.50;;;;;;;11.16;100.00;101995.34;5040911;28;20539;-40
2023/06/01 03:30:26;;;;;;;14.60;10.90;;;;;;;11.20;100.00;101995.84;5040241;28;20853;-42
2023/06/01 03:32:54;;;;;;;17.73;9.70;;;;;;;11.19;100.00;101992.34;5040641;28;20460;-40
2023/06/01 03:35:22;;;;;;;11.73;9.73;;;;;;;11.30;100.00;101994.66;5041114;28;20456;-42
2023/06/01 03:37:49;;;;;;;13.73;8.63;;;;;;;11.23;100.00;101993.66;5040616;28;20681;-41
2023/06/01 03:40:17;;;;;;;14.40;8.90;;;;;;;11.18;100.00;102004.00;5039667;28;20529;-41
2023/06/01 03:42:47;;;;;;;14.70;8.00;;;;;;;11.19;100.00;102004.84;5041120;28;20486;-42
2023/06/01 03:45:17;;;;;;;17.63;8.07;;;;;;;11.22;100.00;102000.00;5041141;28;20444;-40
2023/06/01 03:47:45;;;;;;;10.03;7.60;;;;;;;11.17;100.00;102002.34;5040389;28;20421;-40
2023/06/01 03:50:13;;;;;;;17.30;6.70;;;;;;;11.23;100.00;101996.31;5040216;28;20460;-41
2023/06/01 03:52:40;;;;;;;10.27;6.87;;;;;;;11.21;100.00;102003.69;5040752;28;20436;-41
2023/06/01 03:55:10;;;;;;;11.10;6.93;;;;;;;11.16;100.00;102000.69;5040443;28;20519;-41
2023/06/01 03:57:38;;;;;;;11.93;6.60;;;;;;;11.12;100.00;102007.38;5040731;28;20464;-40
2023/06/01 04:00:17;;;;;;;13.23;6.30;;;;;;;11.11;100.00;102013.69;5040044;28;20451;-41
2023/06/01 04:02:51;;;;;;;20.40;7.70;;;;;;;11.13;100.00;101990.34;5040430;28;20443;-40
2023/06/01 04:05:20;;;;;;;10.93;7.90;;;;;;;11.14;100.00;101992.00;5040645;28;20480;-41
2023/06/01 04:07:52;;;;;;;8.20;7.00;;;;;;;11.20;100.00;101999.31;5040869;28;20459;-42
2023/06/01 04:10:20;;;;;;;13.03;7.13;;;;;;;11.16;100.00;101990.00;5039895;28;20519;-40
2023/06/01 04:12:50;;;;;;;12.53;7.97;;;;;;;11.17;100.00;101993.53;5039396;28;20436;-40
2023/06/01 04:15:19;;;;;;;18.30;7.70;;;;;;;11.22;100.00;102000.00;5039861;28;20468;-42
2023/06/01 04:17:49;;;;;;;11.73;6.93;;;;;;;11.16;100.00;101987.34;5040000;28;20476;-42
2023/06/01 04:20:17;;;;;;;10.70;6.60;;;;;;;11.21;100.00;101993.00;5038879;28;20512;-41
2023/06/01 04:22:47;;;;;;;20.63;8.60;;;;;;;11.18;100.00;101993.34;5040511;28;20804;-40
2023/06/01 04:25:17;;;;;;;10.70;6.37;;;;;;;11.14;100.00;101984.00;5039784;28;20468;-41
2023/06/01 04:27:47;;;;;;;14.37;8.53;;;;;;;11.19;100.00;101987.00;5028886;28;20420;-41
2023/06/01 04:30:16;;;;;;;14.90;7.73;;;;;;;11.25;100.00;101989.00;5038281;28;20491;-40
2023/06/01 04:32:47;;;;;;;9.97;6.93;;;;;;;11.32;100.00;101992.63;5040231;28;20438;-41
2023/06/01 04:35:17;;;;;;;13.30;6.77;;;;;;;11.25;100.00;101983.66;5040379;28;20444;-41
2023/06/01 04:37:46;;;;;;;15.57;8.57;;;;;;;11.23;100.00;101982.16;5040256;28;20480;-40
2023/06/01 04:40:14;;;;;;;16.90;8.00;;;;;;;11.18;100.00;101987.16;5039815;28;20556;-47
2023/06/01 04:42:48;;;;;;;15.77;8.67;;;;;;;11.13;100.00;101981.50;5039892;28;20428;-41
2023/06/01 04:45:16;;;;;;;18.17;8.37;;;;;;;11.08;100.00;102000.69;5040293;28;20495;-43
2023/06/01 04:47:46;;;;;;;13.47;7.47;;;;;;;11.01;100.00;101967.69;5039696;28;20946;-40
2023/06/01 04:50:15;;;;;;;14.13;7.73;;;;;;;11.01;100.00;101973.03;5039431;28;20456;-40
2023/06/01 04:52:45;;;;;;;22.07;8.30;;;;;;;11.05;100.00;101987.69;5039858;28;20440;-40
2023/06/01 04:55:13;;;;;;;13.23;8.20;;;;;;;11.10;100.00;101980.00;5040400;28;20459;-41
2023/06/01 04:57:43;;;;;;;15.57;7.70;;;;;;;11.08;100.00;101980.16;5040009;28;20480;-40
2023/06/01 05:00:13;;;;;;;15.00;8.03;;;;;;;11.13;100.00;101982.34;5038643;28;20468;-42
2023/06/01 05:02:43;;;;;;;15.13;8.20;;;;;;;11.13;100.00;101985.00;5040165;28;20424;-41
2023/06/01 05:05:12;;;;;;;9.00;7.30;;;;;;;11.24;100.00;101983.81;5039311;28;20476;-41
2023/06/01 05:07:41;;;;;;;12.23;7.70;;;;;;;11.35;100.00;101983.47;5039942;28;20432;-41
2023/06/01 05:10:13;;;;;;;11.13;8.00;;;;;;;11.44;100.00;101975.22;5038945;28;20460;-41
2023/06/01 05:12:40;;;;;;;10.50;7.50;;;;;;;11.46;100.00;101980.41;5039498;28;20480;-40
2023/06/01 05:15:10;;;;;;;22.37;7.50;;;;;;;11.47;100.00;101971.38;5039736;28;20456;-41
2023/06/01 05:17:39;;;;;;;16.27;7.27;;;;;;;11.48;100.00;101965.88;5039539;28;20468;-44
2023/06/01 05:20:08;;;;;;;11.00;7.03;;;;;;;11.59;100.00;101968.16;5038636;28;20494;-40
2023/06/01 05:22:37;;;;;;;16.70;8.10;;;;;;;11.67;100.00;101972.66;5039202;28;20893;-41
2023/06/01 05:25:07;;;;;;;18.07;8.60;;;;;;;11.68;100.00;101966.28;5038687;28;20513;-41
2023/06/01 05:27:36;;;;;;;9.47;6.73;;;;;;;11.68;100.00;101968.16;5028857;28;20433;-41
2023/06/01 05:30:05;;;;;;;21.40;8.43;;;;;;;11.88;100.00;101967.56;5028707;28;20460;-43
2023/06/01 05:32:33;;;;;;;18.60;8.70;;;;;;;11.89;100.00;101963.88;5039496;28;20482;-40
2023/06/01 05:35:01;;;;;;;15.70;7.50;;;;;;;12.05;100.00;101958.44;5038937;28;20499;-41
2023/06/01 05:37:28;;;;;;;16.63;6.80;;;;;;;12.01;100.00;101957.13;5040268;28;20464;-41
2023/06/01 05:39:56;;;;;;;11.77;7.23;;;;;;;12.11;100.00;101968.44;5042494;28;20463;-40
2023/06/01 05:42:24;;;;;;;14.63;7.00;;;;;;;11.89;100.00;101961.19;5042803;28;20427;-43
2023/06/01 05:44:53;;;;;;;8.70;6.17;;;;;;;11.96;100.00;101956.81;5042260;28;20455;-42
2023/06/01 05:47:21;;;;;;;13.00;6.70;;;;;;;11.95;100.00;101952.47;5042474;28;20444;-40
2023/06/01 05:49:49;;;;;;;9.67;6.90;;;;;;;11.89;100.00;101953.19;5042336;28;20794;-43
2023/06/01 05:52:16;;;;;;;10.27;6.00;;;;;;;11.99;100.00;101959.16;5041905;28;20432;-43
2023/06/01 05:54:44;;;;;;;12.97;7.63;;;;;;;11.91;100.00;101961.03;5041967;28;20459;-41
2023/06/01 05:57:12;;;;;;;12.80;7.20;;;;;;;12.07;100.00;101955.56;5042044;28;20521;-41
2023/06/01 05:59:42;;;;;;;11.30;7.20;;;;;;;11.96;100.00;101970.19;5041771;28;20463;-44
2023/06/01 06:02:11;;;;;;;14.67;7.43;;;;;;;11.99;100.00;101948.47;5042575;28;20429;-46
2023/06/01 06:04:39;;;;;;;16.93;7.37;;;;;;;11.98;100.00;101948.63;5041627;28;20456;-42
2023/06/01 06:07:07;;;;;;;11.50;6.40;;;;;;;12.01;100.00;101949.09;5042246;28;20478;-45
2023/06/01 06:09:35;;;;;;;17.03;8.30;;;;;;;12.06;100.00;101951.25;5041163;28;20459;-41
2023/06/01 06:12:03;;;;;;;16.17;6.77;;;;;;;11.97;100.00;101953.16;5042472;28;20460;-40
2023/06/01 06:14:31;;;;;;;15.40;7.00;;;;;;;11.99;100.00;101948.47;5042177;28;20482;-42
2023/06/01 06:16:59;;;;;;;10.27;7.43;;;;;;;12.02;100.00;101952.63;5041835;28;20436;-41
2023/06/01 06:19:29;;;;;;;13.00;6.70;;;;;;;12.14;100.00;101951.19;5041491;28;20466;-41
2023/06/01 06:21:57;;;;;;;9.20;7.30;;;;;;;12.32;100.00;101949.06;5041235;28;20428;-41
2023/06/01 06:24:24;;;;;;;11.03;7.03;;;;;;;12.38;100.00;101939.50;5040872;28;20435;-41
2023/06/01 06:26:52;;;;;;;16.03;7.00;;;;;;;12.25;100.00;101947.28;5037582;28;20433;-43
2023/06/01 06:29:20;;;;;;;14.43;7.70;;;;;;;12.36;100.00;101939.69;5041088;28;20456;-42
2023/06/01 06:31:49;;;;;;;10.37;6.70;;;;;;;12.66;100.00;101943.28;5041560;28;20498;-44
2023/06/01 06:34:16;;;;;;;13.50;6.30;;;;;;;12.71;100.00;101943.56;5041436;28;20934;-43
2023/06/01 06:36:46;;;;;;;12.20;6.90;;;;;;;12.62;100.00;101942.81;5042220;28;20454;-40
2023/06/01 06:39:15;;;;;;;21.53;7.67;;;;;;;12.56;100.00;101938.19;5041135;28;20978;-41
2023/06/01 06:41:42;;;;;;;9.67;6.80;;;;;;;12.54;100.00;101939.38;5040921;28;20460;-46
2023/06/01 06:44:11;;;;;;;15.63;6.40;;;;;;;12.54;100.00;101940.22;5041675;28;20524;-41
2023/06/01 06:46:39;;;;;;;13.63;5.97;;;;;;;12.37;100.00;101937.81;5041412;28;20452;-41
2023/06/01 06:49:07;;;;;;;9.77;6.07;;;;;;;12.44;100.00;101938.78;5040951;28;20429;-42
2023/06/01 06:51:35;;;;;;;17.00;6.00;;;;;;;12.40;100.00;101932.09;5041064;28;20432;-41
2023/06/01 06:54:05;;;;;;;10.10;6.77;;;;;;;12.63;100.00;101949.00;5041983;28;20437;-41
2023/06/01 06:56:33;;;;;;;13.50;6.43;;;;;;;12.46;100.00;101948.28;5041512;28;20510;-41
2023/06/01 06:59:01;;;;;;;18.50;6.97;;;;;;;12.44;100.00;101952.16;5040720;28;20506;-41
2023/06/01 07:01:37;;;;;;;11.90;6.53;;;;;;;12.58;100.00;101944.16;5041820;28;20444;-41
2023/06/01 07:04:08;;;;;;;9.17;6.13;;;;;;;12.54;100.00;101944.72;5047550;22;20484;-42
2023/06/01 07:06:37;;;;;;;11.50;7.00;;;;;;;12.77;100.00;101946.34;5012926;28;20429;-41
2023/06/01 07:09:08;;;;;;;8.50;5.90;;;;;;;12.74;100.00;101952.06;5012486;28;20787;-42
2023/06/01 07:11:36;;;;;;;11.70;6.07;;;;;;;12.86;100.00;101941.75;5013153;28;20480;-43
2023/06/01 07:14:04;;;;;;;12.80;6.00;;;;;;;12.92;100.00;101934.81;5012794;28;20800;-42
2023/06/01 07:16:31;;;;;;;16.30;5.93;;;;;;;12.92;100.00;101950.88;5013063;28;20444;-42
2023/06/01 07:18:59;;;;;;;10.53;5.50;;;;;;;13.09;100.00;101952.41;5011158;28;20481;-42
2023/06/01 07:21:27;;;;;;;13.90;6.10;;;;;;;13.00;100.00;101942.75;5012330;28;20843;-41
2023/06/01 07:23:55;;;;;;;11.27;5.53;;;;;;;13.16;100.00;101958.72;5012212;28;20449;-41
2023/06/01 07:26:26;;;;;;;11.77;6.80;;;;;;;13.43;100.00;101960.75;5012479;28;20449;-44
2023/06/01 07:28:56;;;;;;;8.20;5.60;;;;;;;13.53;100.00;101955.91;5028443;28;20424;-44
2023/06/01 07:31:24;;;;;;;10.50;6.43;;;;;;;13.55;100.00;101942.34;4992450;28;20445;-43
2023/06/01 07:33:52;;;;;;;9.10;6.50;;;;;;;13.52;100.00;101946.22;4992607;28;20461;-42
2023/06/01 07:36:23;;;;;;;12.03;5.90;;;;;;;13.58;100.00;101945.47;4993046;28;20437;-45
2023/06/01 07:38:51;;;;;;;14.47;6.13;;;;;;;13.59;100.00;101949.81;4993185;28;20470;-42
2023/06/01 07:41:19;;;;;;;5.93;5.33;;;;;;;14.10;100.00;101941.72;4992184;28;20466;-43
2023/06/01 07:43:48;;;;;;;8.50;5.70;;;;;;;14.35;100.00;101927.78;4992656;28;20453;-42
2023/06/01 07:46:16;;;;;;;14.67;6.20;;;;;;;14.72;100.00;101931.22;4992694;28;20441;-41
2023/06/01 07:48:44;;;;;;;9.87;5.40;;;;;;;14.74;100.00;101921.94;4992280;28;20438;-46
2023/06/01 07:51:11;;;;;;;10.10;5.93;;;;;;;14.74;100.00;101919.25;4991982;28;20532;-42
2023/06/01 07:53:39;;;;;;;7.10;5.00;;;;;;;14.50;100.00;101922.34;4992107;28;21045;-43
2023/06/01 07:56:07;;;;;;;9.57;5.83;;;;;;;14.36;100.00;101920.59;4992428;28;20438;-43
2023/06/01 07:58:35;;;;;;;7.47;4.77;;;;;;;14.56;100.00;101921.56;4992353;28;21138;-44
2023/06/01 08:01:06;;;;;;;6.97;5.07;;;;;;;14.76;100.00;101916.34;4991282;28;20465;-43
2023/06/01 08:03:34;;;;;;;11.60;5.37;;;;;;;14.72;100.00;101931.22;4991890;28;20461;-45
2023/06/01 08:06:04;;;;;;;13.33;5.80;;;;;;;14.93;100.00;101923.09;4992262;28;20496;-42
2023/06/01 08:08:33;;;;;;;10.50;5.00;;;;;;;15.20;100.00;101914.16;4992212;28;20476;-42
2023/06/01 08:11:00;;;;;;;7.40;6.03;;;;;;;15.22;100.00;101917.50;4991470;28;20465;-42
2023/06/01 08:13:28;;;;;;;12.47;5.47;;;;;;;15.36;100.00;101919.22;4991766;28;20449;-44
2023/06/01 08:15:56;;;;;;;8.20;4.60;;;;;;;15.23;100.00;101916.44;4991828;28;20438;-45
2023/06/01 08:18:25;;;;;;;8.30;5.23;;;;;;;15.40;100.00;101927.72;4992125;28;20478;-42
2023/06/01 08:20:53;;;;;;;12.73;5.03;;;;;;;15.09;100.00;101914.72;4988585;28;20470;-43
2023/06/01 08:23:22;;;;;;;5.17;4.67;;;;;;;14.95;100.00;101934.47;4991572;28;20453;-42
2023/06/01 08:25:50;;;;;;;9.17;4.60;;;;;;;14.62;100.00;101936.91;4991749;28;20943;-42
2023/06/01 08:28:18;;;;;;;8.20;4.00;;;;;;;14.51;100.00;101941.97;5019072;28;20444;-42
2023/06/01 08:30:45;;;;;;;9.43;4.13;;;;;;;14.50;100.00;101949.19;5030712;28;20462;-42
2023/06/01 08:33:13;;;;;;;13.77;4.70;;;;;;;14.66;100.00;101948.94;5031217;28;20483;-42
2023/06/01 08:35:42;;;;;;;10.10;4.73;;;;;;;14.61;100.00;101943.28;5031426;28;20503;-41
2023/06/01 08:38:10;;;;;;;15.87;4.83;;;;;;;14.64;100.00;101945.59;5031080;28;20428;-41
2023/06/01 08:40:40;;;;;;;6.67;4.20;;;;;;;14.56;100.00;101942.22;5030977;28;20490;-42
2023/06/01 08:43:17;;;;;;;8.33;4.43;;;;;;;14.80;100.00;101933.75;5030973;28;20456;-45
2023/06/01 08:45:45;;;;;;;10.53;4.60;;;;;;;14.55;100.00;101933.31;5031259;28;20497;-42
2023/06/01 08:48:16;;;;;;;9.37;4.87;;;;;;;14.65;100.00;101925.78;5031435;28;20436;-42
2023/06/01 08:50:49;;;;;;;9.67;4.73;;;;;;;14.72;100.00;101929.34;5030896;28;20536;-42
2023/06/01 08:53:21;;;;;;;11.87;4.37;;;;;;;14.52;100.00;101932.88;5031047;28;20448;-42
2023/06/01 08:55:52;;;;;;;11.50;4.77;;;;;;;14.59;100.00;101931.94;5031196;28;20527;-45
2023/06/01 08:58:20;;;;;;;11.57;5.57;;;;;;;14.93;100.00;101915.84;5031187;28;20443;-41
2023/06/01 09:00:49;;;;;;;9.67;4.80;;;;;;;14.78;100.00;101907.06;5030454;28;20468;-44
2023/06/01 09:03:17;;;;;;;14.10;5.00;;;;;;;15.17;100.00;101916.44;5030830;28;20467;-42
2023/06/01 09:05:47;;;;;;;8.07;4.80;;;;;;;14.90;100.00;101912.75;5030872;28;20454;-42
2023/06/01 09:08:15;;;;;;;14.63;5.50;;;;;;;15.12;100.00;101924.22;5030724;28;20941;-42
2023/06/01 09:10:43;;;;;;;11.10;4.37;;;;;;;15.41;100.00;101924.81;5030350;28;21027;-42
2023/06/01 09:13:10;;;;;;;11.83;4.80;;;;;;;15.80;100.00;101920.66;5031287;28;20502;-41
2023/06/01 09:15:51;;;;;;;13.03;5.10;;;;;;;15.65;100.00;101922.69;5034704;28;20443;-42
2023/06/01 09:18:19;;;;;;;10.77;4.30;;;;;;;15.39;100.00;101918.81;5034716;28;20415;-43
2023/06/01 09:20:49;;;;;;;11.53;4.70;;;;;;;15.63;100.00;101917.50;5032746;28;20495;-41
2023/06/01 09:23:24;;;;;;;17.47;6.07;;;;;;;15.26;100.00;101915.25;5034485;28;20480;-41
2023/06/01 09:26:09;;;;;;;11.87;5.40;;;;;;;15.46;100.00;101918.84;5034245;28;20443;-42
2023/06/01 09:28:56;;;;;;;13.40;4.97;;;;;;;15.52;100.00;101912.69;5028378;28;20446;-42
2023/06/01 09:31:44;;;;;;;15.53;5.87;;;;;;;15.93;100.00;101908.06;4994762;28;20445;-43
2023/06/01 09:34:15;;;;;;;16.50;6.57;;;;;;;16.46;100.00;101891.97;4995139;28;20446;-42
2023/06/01 09:36:45;;;;;;;9.10;5.50;;;;;;;16.11;100.00;101912.03;4995009;28;20441;-43
2023/06/01 09:39:14;;;;;;;9.27;5.10;;;;;;;16.07;100.00;101905.44;4994624;28;20552;-42
2023/06/01 09:41:50;;;;;;;10.80;6.20;;;;;;;15.85;100.00;101899.38;4994905;28;20440;-42
2023/06/01 09:44:27;;;;;;;17.00;5.53;;;;;;;15.76;100.00;101887.97;4994708;28;20537;-42
2023/06/01 09:46:56;;;;;;;16.43;6.17;;;;;;;16.10;100.00;101892.38;4994477;28;20909;-42
2023/06/01 09:49:26;;;;;;;8.47;5.37;;;;;;;16.17;100.00;101882.44;4994213;28;20973;-42
2023/06/01 09:52:12;;;;;;;11.93;5.53;;;;;;;16.26;100.00;101888.47;4994445;28;20438;-43
2023/06/01 09:54:42;;;;;;;16.20;6.27;;;;;;;16.30;100.00;101887.03;4994795;28;20454;-44
2023/06/01 09:57:10;;;;;;;17.13;4.80;;;;;;;16.36;100.00;101895.09;4994355;28;20480;-42
2023/06/01 09:59:42;;;;;;;7.97;5.33;;;;;;;16.17;100.00;101887.00;4994247;28;20457;-43
2023/06/01 10:02:14;;;;;;;11.37;5.60;;;;;;;15.85;100.00;101881.38;4994337;28;20418;-42
2023/06/01 10:04:46;;;;;;;21.67;5.57;;;;;;;15.75;100.00;101883.63;4994180;28;20551;-44
2023/06/01 10:07:16;;;;;;;13.13;5.30;;;;;;;15.94;100.00;101882.84;4994547;28;20441;-42
2023/06/01 10:09:46;;;;;;;12.23;5.97;;;;;;;15.97;100.00;101889.66;4993861;28;20462;-42
2023/06/01 10:12:15;;;;;;;16.90;5.90;;;;;;;16.03;100.00;101880.78;4993944;28;20850;-47
2023/06/01 10:14:43;;;;;;;11.63;5.67;;;;;;;16.35;100.00;101879.16;4993941;28;20449;-42
2023/06/01 10:17:11;;;;;;;9.30;4.60;;;;;;;16.30;100.00;101876.25;4994186;28;20484;-43
2023/06/01 10:19:39;;;;;;;9.60;5.50;;;;;;;16.05;100.00;101868.78;4993202;28;21082;-44
2023/06/01 10:22:07;;;;;;;16.50;5.40;;;;;;;16.13;100.00;101865.03;4993807;28;20433;-41
2023/06/01 10:24:40;;;;;;;11.20;5.20;;;;;;;16.30;100.00;101870.88;4993293;28;21003;-43
2023/06/01 10:27:19;;;;;;;8.17;5.40;;;;;;;16.04;100.00;101863.59;5002274;28;20473;-43
2023/06/01 10:29:47;;;;;;;14.03;6.00;;;;;;;16.07;100.00;101859.69;5032908;28;20447;-43
2023/06/01 10:32:43;;;;;;;15.93;6.10;;;;;;;16.19;100.00;101864.22;5033155;28;20431;-42
2023/06/01 10:36:01;;;;;;;10.83;5.90;;;;;;;16.26;100.00;101861.53;5032906;28;20444;-42
2023/06/01 10:38:30;;;;;;;13.17;5.63;;;;;;;16.84;100.00;101854.50;5033389;28;20471;-45
2023/06/01 10:41:28;;;;;;;12.50;5.30;;;;;;;17.47;100.00;101850.91;5032582;28;20504;-42
2023/06/01 10:43:56;;;;;;;14.30;6.57;;;;;;;17.82;100.00;101854.09;5033178;28;20475;-42
2023/06/01 10:46:48;;;;;;;19.27;6.60;;;;;;;18.07;97.93;101856.84;5033142;28;20440;-42
2023/06/01 10:49:15;;;;;;;14.20;5.67;;;;;;;17.65;97.79;101845.66;5022525;28;20439;-41
2023/06/01 10:51:43;;;;;;;27.37;6.77;;;;;;;17.84;99.99;101841.19;5032553;28;20857;-44
2023/06/01 10:54:29;;;;;;;17.03;5.03;;;;;;;17.34;100.00;101845.59;5032828;28;20514;-43
2023/06/01 10:57:21;;;;;;;18.20;6.27;;;;;;;17.50;97.35;101844.28;5032895;28;20423;-42
2023/06/01 11:00:18;;;;;;;13.93;5.83;;;;;;;17.50;99.55;101847.00;5032294;28;20475;-42
2023/06/01 11:02:55;;;;;;;15.00;6.20;;;;;;;17.90;98.40;101844.91;5032274;28;20439;-44
2023/06/01 11:05:51;;;;;;;9.83;5.20;;;;;;;17.30;89.88;101848.94;5032365;28;20443;-45
2023/06/01 11:08:53;;;;;;;11.07;5.07;;;;;;;16.88;93.17;101844.94;5032252;28;20451;-42
2023/06/01 11:11:24;;;;;;;18.43;5.80;;;;;;;16.90;96.12;101845.56;4990021;28;21002;-42
2023/06/01 11:14:13;;;;;;;12.10;5.23;;;;;;;16.98;98.39;101853.41;4990722;28;20500;-42
2023/06/01 11:16:41;;;;;;;18.60;6.47;;;;;;;17.00;99.65;101837.84;4990719;28;20430;-43
2023/06/01 11:19:10;;;;;;;9.63;4.93;;;;;;;16.91;97.78;101841.81;4990150;28;20434;-42
2023/06/01 11:21:40;;;;;;;19.80;5.50;;;;;;;16.97;100.00;101841.78;4990504;28;20564;-43
2023/06/01 11:24:10;;;;;;;14.00;5.30;;;;;;;16.86;100.00;101838.94;4990442;28;20443;-44